createdAt,value
2017-09-15T00:00:20.304Z,11.62
2017-09-15T00:01:14.345Z,11.62
2017-09-15T00:02:08.590Z,11.65
2017-09-15T00:02:57.427Z,11.64
2017-09-15T00:03:57.444Z,11.62
2017-09-15T00:04:46.451Z,11.59
2017-09-15T00:05:41.624Z,11.56
2017-09-15T00:06:41.574Z,11.57
2017-09-15T00:07:35.570Z,11.54
2017-09-15T00:08:35.539Z,11.48
2017-09-15T00:09:29.591Z,11.49
2017-09-15T00:10:23.676Z,11.44
2017-09-15T00:11:17.859Z,11.43
2017-09-15T00:12:12.690Z,11.42
2017-09-15T00:13:00.738Z,11.42
2017-09-15T00:13:54.806Z,11.40
2017-09-15T00:14:42.785Z,11.34
2017-09-15T00:15:36.844Z,11.29
2017-09-15T00:16:25.059Z,11.28
2017-09-15T00:17:13.071Z,11.28
2017-09-15T00:18:07.350Z,11.24
2017-09-15T00:19:07.015Z,11.28
2017-09-15T00:20:01.043Z,11.30
2017-09-15T00:21:02.055Z,11.27
2017-09-15T00:22:02.118Z,11.22
2017-09-15T00:22:57.159Z,11.26
2017-09-15T00:23:58.250Z,11.27
2017-09-15T00:24:47.187Z,11.26
2017-09-15T00:25:36.365Z,11.23
2017-09-15T00:26:24.293Z,11.20
2017-09-15T00:27:18.481Z,11.19
2017-09-15T00:28:07.559Z,11.20
2017-09-15T00:28:56.458Z,11.32
2017-09-15T00:29:51.681Z,11.33
2017-09-15T00:30:46.609Z,11.31
2017-09-15T00:31:40.519Z,11.32
2017-09-15T00:32:40.626Z,11.36
2017-09-15T00:33:34.825Z,11.34
2017-09-15T00:34:23.742Z,11.37
2017-09-15T00:35:23.738Z,11.40
2017-09-15T00:36:11.708Z,11.36
2017-09-15T00:37:06.731Z,11.43
2017-09-15T00:38:00.673Z,11.43
2017-09-15T00:39:00.768Z,11.40
2017-09-15T00:39:49.839Z,11.36
2017-09-15T00:40:49.860Z,11.34
2017-09-15T00:41:44.894Z,11.37
2017-09-15T00:42:34.196Z,11.35
2017-09-15T00:43:22.061Z,11.35
2017-09-15T00:44:21.985Z,11.34
2017-09-15T00:45:16.076Z,11.32
2017-09-15T00:46:16.357Z,11.30
2017-09-15T00:47:11.060Z,11.29
2017-09-15T00:48:11.350Z,11.32
2017-09-15T00:49:05.162Z,11.34
2017-09-15T00:50:00.210Z,11.30
2017-09-15T00:50:55.347Z,11.34
2017-09-15T00:51:55.279Z,11.30
2017-09-15T00:52:55.230Z,11.32
2017-09-15T00:53:44.342Z,11.32
2017-09-15T00:54:44.485Z,11.30
2017-09-15T00:55:39.402Z,11.30
2017-09-15T00:56:33.375Z,11.33
2017-09-15T00:57:27.553Z,11.32
2017-09-15T00:58:27.505Z,11.29
2017-09-15T00:59:21.566Z,11.28
2017-09-15T01:00:10.699Z,11.30
2017-09-15T01:01:04.612Z,11.27
2017-09-15T01:01:59.660Z,11.27
2017-09-15T01:02:55.017Z,11.24
2017-09-15T01:03:55.624Z,11.26
2017-09-15T01:04:49.827Z,11.25
2017-09-15T01:05:43.787Z,11.23
2017-09-15T01:06:38.816Z,11.22
2017-09-15T01:07:33.796Z,11.20
2017-09-15T01:08:34.126Z,11.22
2017-09-15T01:09:27.927Z,11.28
2017-09-15T01:10:28.864Z,11.31
2017-09-15T01:11:29.006Z,11.29
2017-09-15T01:12:22.893Z,11.31
2017-09-15T01:13:18.115Z,11.26
2017-09-15T01:14:12.155Z,11.32
2017-09-15T01:15:06.161Z,11.34
2017-09-15T01:15:55.136Z,11.36
2017-09-15T01:16:49.210Z,11.40
2017-09-15T01:17:44.448Z,11.41
2017-09-15T01:18:33.524Z,11.37
2017-09-15T01:19:28.385Z,11.40
2017-09-15T01:20:28.299Z,11.37
2017-09-15T01:21:23.315Z,11.33
2017-09-15T01:22:18.374Z,11.30
2017-09-15T01:23:06.400Z,11.27
2017-09-15T01:24:00.571Z,11.22
2017-09-15T01:25:00.623Z,11.13
2017-09-15T01:26:00.469Z,11.09
2017-09-15T01:27:00.526Z,11.07
2017-09-15T01:27:54.570Z,11.14
2017-09-15T01:28:54.730Z,11.19
2017-09-15T01:29:49.649Z,11.18
2017-09-15T01:30:38.635Z,11.14
2017-09-15T01:31:38.689Z,11.10
2017-09-15T01:32:32.812Z,11.09
2017-09-15T01:33:20.768Z,11.05
2017-09-15T01:34:14.807Z,11.11
2017-09-15T01:35:02.859Z,11.11
2017-09-15T01:36:02.897Z,11.18
2017-09-15T01:36:56.912Z,11.18
2017-09-15T01:37:52.339Z,11.21
2017-09-15T01:38:41.125Z,11.17
2017-09-15T01:39:30.088Z,11.16
2017-09-15T01:40:19.050Z,11.17
2017-09-15T01:41:19.262Z,11.18
2017-09-15T01:42:13.086Z,11.18
2017-09-15T01:43:07.487Z,11.19
2017-09-15T01:44:02.313Z,11.19
2017-09-15T01:44:56.263Z,11.21
2017-09-15T01:45:50.334Z,11.22
2017-09-15T01:46:45.370Z,11.22
2017-09-15T01:47:45.391Z,11.20
2017-09-15T01:48:40.312Z,11.14
2017-09-15T01:49:40.300Z,11.14
2017-09-15T01:50:34.437Z,11.16
2017-09-15T01:51:28.438Z,11.18
2017-09-15T01:52:23.546Z,11.21
2017-09-15T01:53:17.683Z,11.21
2017-09-15T01:54:11.826Z,11.25
2017-09-15T01:55:00.679Z,11.24
2017-09-15T01:55:54.643Z,11.21
2017-09-15T01:56:55.664Z,11.22
2017-09-15T01:57:49.762Z,11.22
2017-09-15T01:58:43.739Z,11.20
2017-09-15T01:59:37.790Z,11.26
2017-09-15T02:00:33.077Z,11.30
2017-09-15T02:01:21.885Z,11.29
2017-09-15T02:02:21.939Z,11.30
2017-09-15T02:03:16.110Z,11.30
2017-09-15T02:04:10.960Z,11.23
2017-09-15T02:05:05.048Z,11.21
2017-09-15T02:05:54.054Z,11.21
2017-09-15T02:06:54.059Z,11.22
2017-09-15T02:07:48.072Z,11.21
2017-09-15T02:08:48.194Z,11.16
2017-09-15T02:09:43.220Z,11.14
2017-09-15T02:10:38.124Z,11.16
2017-09-15T02:11:33.245Z,11.18
2017-09-15T02:12:34.236Z,11.17
2017-09-15T02:13:23.505Z,11.14
2017-09-15T02:14:17.412Z,11.18
2017-09-15T02:15:12.364Z,11.14
2017-09-15T02:16:00.444Z,11.09
2017-09-15T02:16:48.457Z,11.06
2017-09-15T02:17:42.529Z,11.04
2017-09-15T02:18:30.736Z,11.00
2017-09-15T02:19:24.643Z,10.99
2017-09-15T02:20:18.597Z,11.02
2017-09-15T02:21:12.599Z,11.02
2017-09-15T02:22:12.629Z,11.06
2017-09-15T02:23:12.866Z,11.02
2017-09-15T02:24:18.663Z,11.03
2017-09-15T02:25:13.045Z,11.07
2017-09-15T02:26:06.786Z,11.10
2017-09-15T02:27:00.827Z,11.09
2017-09-15T02:27:54.909Z,11.12
2017-09-15T02:28:44.109Z,11.16
2017-09-15T02:29:32.880Z,11.19
2017-09-15T02:30:27.044Z,11.24
2017-09-15T02:31:16.048Z,11.26
2017-09-15T02:32:05.054Z,11.28
2017-09-15T02:33:05.008Z,11.32
2017-09-15T02:33:54.368Z,11.31
2017-09-15T02:34:43.238Z,11.35
2017-09-15T02:35:37.175Z,11.36
2017-09-15T02:36:26.416Z,11.35
2017-09-15T02:37:15.228Z,11.36
2017-09-15T02:38:09.645Z,11.34
2017-09-15T02:38:58.297Z,11.35
2017-09-15T02:39:47.345Z,11.34
2017-09-15T02:40:36.481Z,11.36
2017-09-15T02:41:36.526Z,11.38
2017-09-15T02:42:25.548Z,11.37
2017-09-15T02:43:14.724Z,11.34
2017-09-15T02:44:03.519Z,11.38
2017-09-15T02:44:52.578Z,11.37
2017-09-15T02:45:52.600Z,11.38
2017-09-15T02:46:46.813Z,11.36
2017-09-15T02:47:41.641Z,11.39
2017-09-15T02:48:36.036Z,11.37
2017-09-15T02:49:35.789Z,11.38
2017-09-15T02:50:30.093Z,11.40
2017-09-15T02:51:30.770Z,11.41
2017-09-15T02:52:19.908Z,11.43
2017-09-15T02:53:14.960Z,11.43
2017-09-15T02:54:03.885Z,11.42
2017-09-15T02:55:04.039Z,11.42
2017-09-15T02:55:57.979Z,11.48
2017-09-15T02:56:59.056Z,11.45
2017-09-15T02:57:47.130Z,11.45
2017-09-15T02:58:41.072Z,11.43
2017-09-15T02:59:36.087Z,11.45
2017-09-15T03:00:37.141Z,11.46
2017-09-15T03:01:31.313Z,11.44
2017-09-15T03:02:31.629Z,11.44
2017-09-15T03:03:20.329Z,11.42
2017-09-15T03:04:14.315Z,11.42
2017-09-15T03:05:02.318Z,11.41
2017-09-15T03:05:56.416Z,11.42
2017-09-15T03:06:56.452Z,11.42
2017-09-15T03:07:45.408Z,11.43
2017-09-15T03:08:33.684Z,11.39
2017-09-15T03:09:28.528Z,11.44
2017-09-15T03:10:22.702Z,11.44
2017-09-15T03:11:16.668Z,11.43
2017-09-15T03:12:05.660Z,11.40
2017-09-15T03:13:00.675Z,11.40
2017-09-15T03:13:55.195Z,11.39
2017-09-15T03:14:43.732Z,11.40
2017-09-15T03:15:37.836Z,11.41
2017-09-15T03:16:38.059Z,11.40
2017-09-15T03:17:32.796Z,11.40
2017-09-15T03:18:28.085Z,11.38
2017-09-15T03:19:23.075Z,11.36
2017-09-15T03:20:18.008Z,11.32
2017-09-15T03:21:13.089Z,11.29
2017-09-15T03:22:00.999Z,11.28
2017-09-15T03:23:01.147Z,11.27
2017-09-15T03:23:55.417Z,11.21
2017-09-15T03:24:49.138Z,11.22
2017-09-15T03:25:49.144Z,11.18
2017-09-15T03:26:37.224Z,11.15
2017-09-15T03:27:37.252Z,11.13
2017-09-15T03:28:31.478Z,11.10
2017-09-15T03:29:20.443Z,11.08
2017-09-15T03:30:14.367Z,11.06
2017-09-15T03:31:09.400Z,11.04
2017-09-15T03:32:04.475Z,11.04
2017-09-15T03:33:05.399Z,11.06
2017-09-15T03:33:54.677Z,11.04
2017-09-15T03:34:42.572Z,11.06
2017-09-15T03:35:36.554Z,11.06
2017-09-15T03:36:31.600Z,11.06
2017-09-15T03:37:25.637Z,11.02
2017-09-15T03:38:20.684Z,10.99
2017-09-15T03:39:14.841Z,10.98
2017-09-15T03:40:08.762Z,10.98
2017-09-15T03:41:03.821Z,10.98
2017-09-15T03:41:57.842Z,11.03
2017-09-15T03:42:57.856Z,11.04
2017-09-15T03:43:46.817Z,11.00
2017-09-15T03:44:34.999Z,11.02
2017-09-15T03:45:23.994Z,11.00
2017-09-15T03:46:12.092Z,11.00
2017-09-15T03:47:01.016Z,10.97
2017-09-15T03:47:55.010Z,10.99
2017-09-15T03:48:50.359Z,10.98
2017-09-15T03:49:50.146Z,11.00
2017-09-15T03:50:50.116Z,11.01
2017-09-15T03:51:56.292Z,11.04
2017-09-15T03:52:56.236Z,11.06
2017-09-15T03:53:57.492Z,11.04
2017-09-15T03:54:51.272Z,11.11
2017-09-15T03:55:51.288Z,11.12
2017-09-15T03:56:46.375Z,11.10
2017-09-15T03:57:46.389Z,11.10
2017-09-15T03:58:46.383Z,11.08
2017-09-15T03:59:41.429Z,11.08
2017-09-15T04:00:41.448Z,11.06
2017-09-15T04:01:41.544Z,11.03
2017-09-15T04:02:36.534Z,11.00
2017-09-15T04:03:30.601Z,10.96
2017-09-15T04:04:30.615Z,10.94
2017-09-15T04:05:25.561Z,10.92
2017-09-15T04:06:20.714Z,10.91
2017-09-15T04:07:08.666Z,10.88
2017-09-15T04:07:56.799Z,10.88
2017-09-15T04:08:50.832Z,10.82
2017-09-15T04:09:50.783Z,10.85
2017-09-15T04:10:44.916Z,10.80
2017-09-15T04:11:39.847Z,10.77
2017-09-15T04:12:34.935Z,10.76
2017-09-15T04:13:34.904Z,10.74
2017-09-15T04:14:24.059Z,10.71
2017-09-15T04:15:17.998Z,10.66
2017-09-15T04:16:11.995Z,10.63
2017-09-15T04:17:07.144Z,10.59
2017-09-15T04:17:55.057Z,10.55
2017-09-15T04:18:55.298Z,10.54
2017-09-15T04:19:50.204Z,10.57
2017-09-15T04:20:44.290Z,10.60
2017-09-15T04:21:33.487Z,10.63
2017-09-15T04:22:28.604Z,10.64
2017-09-15T04:23:16.415Z,10.68
2017-09-15T04:24:04.358Z,10.69
2017-09-15T04:24:59.486Z,10.72
2017-09-15T04:25:53.433Z,10.75
2017-09-15T04:26:47.541Z,10.78
2017-09-15T04:27:41.522Z,10.79
2017-09-15T04:28:36.809Z,10.76
2017-09-15T04:29:36.538Z,10.73
2017-09-15T04:30:30.788Z,10.69
2017-09-15T04:31:24.589Z,10.68
2017-09-15T04:32:18.650Z,10.68
2017-09-15T04:33:13.006Z,10.66
2017-09-15T04:34:07.710Z,10.71
2017-09-15T04:35:07.742Z,10.72
2017-09-15T04:35:56.869Z,10.72
2017-09-15T04:36:46.020Z,10.72
2017-09-15T04:37:40.966Z,10.72
2017-09-15T04:38:30.013Z,10.72
2017-09-15T04:39:17.919Z,10.70
2017-09-15T04:40:06.108Z,10.69
2017-09-15T04:41:01.281Z,10.70
2017-09-15T04:42:02.045Z,10.69
2017-09-15T04:43:02.058Z,10.69
2017-09-15T04:44:02.194Z,10.72
2017-09-15T04:44:56.332Z,10.74
2017-09-15T04:45:57.211Z,10.72
2017-09-15T04:46:57.241Z,10.73
2017-09-15T04:47:57.265Z,10.76
2017-09-15T04:48:47.318Z,10.76
2017-09-15T04:49:35.384Z,10.78
2017-09-15T04:50:24.366Z,10.76
2017-09-15T04:51:15.486Z,10.78
2017-09-15T04:52:00.535Z,10.80
2017-09-15T04:53:00.572Z,10.82
2017-09-15T04:54:00.509Z,10.82
2017-09-15T04:54:48.584Z,10.83
2017-09-15T04:55:48.598Z,10.86
2017-09-15T04:56:43.587Z,10.90
2017-09-15T04:57:32.772Z,10.90
2017-09-15T04:58:21.679Z,10.92
2017-09-15T04:59:22.734Z,10.88
2017-09-15T05:00:22.751Z,10.88
2017-09-15T05:01:17.876Z,10.84
2017-09-15T05:02:17.825Z,10.84
2017-09-15T05:03:12.477Z,10.84
2017-09-15T05:04:01.149Z,10.83
2017-09-15T05:04:54.941Z,10.82
2017-09-15T05:05:54.914Z,10.82
2017-09-15T05:06:55.018Z,10.79
2017-09-15T05:07:49.035Z,10.80
2017-09-15T05:08:43.096Z,10.78
2017-09-15T05:09:38.071Z,10.80
2017-09-15T05:10:27.435Z,10.81
2017-09-15T05:11:22.190Z,10.82
2017-09-15T05:12:16.324Z,10.82
2017-09-15T05:13:06.450Z,10.82
2017-09-15T05:14:01.337Z,10.78
2017-09-15T05:14:55.349Z,10.76
2017-09-15T05:15:49.339Z,10.72
2017-09-15T05:16:38.421Z,10.70
2017-09-15T05:17:32.537Z,10.70
2017-09-15T05:18:20.423Z,10.66
2017-09-15T05:19:09.508Z,10.66
2017-09-15T05:20:03.650Z,10.64
2017-09-15T05:20:58.687Z,10.62
2017-09-15T05:21:47.633Z,10.58
2017-09-15T05:22:35.980Z,10.62
2017-09-15T05:23:24.702Z,10.61
2017-09-15T05:24:24.741Z,10.58
2017-09-15T05:25:13.771Z,10.59
2017-09-15T05:26:07.815Z,10.56
2017-09-15T05:27:02.911Z,10.56
2017-09-15T05:27:56.911Z,10.55
2017-09-15T05:28:52.057Z,10.60
2017-09-15T05:29:52.079Z,10.62
2017-09-15T05:30:40.997Z,10.62
2017-09-15T05:31:30.027Z,10.64
2017-09-15T05:32:24.077Z,10.64
2017-09-15T05:33:24.073Z,10.65
2017-09-15T05:34:18.163Z,10.62
2017-09-15T05:35:12.114Z,10.65
2017-09-15T05:36:07.203Z,10.64
2017-09-15T05:37:07.255Z,10.69
2017-09-15T05:38:07.236Z,10.68
2017-09-15T05:39:07.351Z,10.71
2017-09-15T05:40:07.304Z,10.69
2017-09-15T05:41:07.510Z,10.67
2017-09-15T05:42:01.653Z,10.78
2017-09-15T05:42:55.399Z,10.80
2017-09-15T05:43:49.479Z,10.75
2017-09-15T05:44:43.536Z,10.72
2017-09-15T05:45:31.602Z,10.75
2017-09-15T05:46:20.818Z,10.76
2017-09-15T05:47:20.630Z,10.82
2017-09-15T05:48:09.653Z,10.86
2017-09-15T05:48:57.716Z,10.84
2017-09-15T05:49:46.840Z,10.82
2017-09-15T05:50:35.788Z,10.82
2017-09-15T05:51:29.911Z,10.80
2017-09-15T05:52:29.838Z,10.84
2017-09-15T05:53:24.929Z,10.88
2017-09-15T05:54:18.952Z,10.95
2017-09-15T05:55:12.999Z,10.98
2017-09-15T05:56:06.986Z,11.01
2017-09-15T05:56:55.296Z,11.05
2017-09-15T05:57:50.068Z,11.05
2017-09-15T05:58:45.078Z,11.05
2017-09-15T05:59:39.153Z,11.11
2017-09-15T06:00:28.285Z,11.13
2017-09-15T06:01:28.231Z,11.16
2017-09-15T06:02:23.487Z,11.22
2017-09-15T06:03:17.700Z,11.16
2017-09-15T06:04:11.349Z,11.15
2017-09-15T06:05:00.580Z,11.24
2017-09-15T06:05:49.406Z,11.20
2017-09-15T06:06:43.437Z,11.18
2017-09-15T06:07:49.530Z,11.24
2017-09-15T06:08:44.528Z,11.22
2017-09-15T06:09:32.577Z,11.22
2017-09-15T06:10:27.622Z,11.23
2017-09-15T06:11:16.607Z,11.19
2017-09-15T06:12:05.664Z,11.19
2017-09-15T06:12:59.771Z,11.26
2017-09-15T06:13:59.900Z,11.19
2017-09-15T06:14:53.758Z,11.14
2017-09-15T06:15:47.931Z,11.15
2017-09-15T06:16:41.816Z,11.23
2017-09-15T06:17:35.891Z,11.27
2017-09-15T06:18:30.212Z,11.24
2017-09-15T06:19:35.950Z,11.28
2017-09-15T06:20:31.142Z,11.46
2017-09-15T06:21:25.020Z,11.54
2017-09-15T06:22:25.335Z,11.64
2017-09-15T06:23:19.400Z,11.76
2017-09-15T06:24:19.147Z,11.70
2017-09-15T06:25:14.333Z,11.66
2017-09-15T06:26:09.206Z,11.69
2017-09-15T06:27:03.190Z,11.70
2017-09-15T06:28:03.393Z,11.77
2017-09-15T06:28:58.333Z,11.81
2017-09-15T06:29:58.418Z,11.92
2017-09-15T06:30:58.435Z,12.02
2017-09-15T06:31:58.451Z,12.07
2017-09-15T06:32:47.464Z,12.02
2017-09-15T06:33:36.517Z,11.98
2017-09-15T06:34:31.522Z,11.94
2017-09-15T06:35:19.697Z,11.94
2017-09-15T06:36:19.675Z,11.83
2017-09-15T06:37:14.702Z,11.72
2017-09-15T06:38:08.723Z,11.66
2017-09-15T06:39:03.913Z,11.62
2017-09-15T06:39:52.839Z,11.49
2017-09-15T06:40:42.012Z,11.56
2017-09-15T06:41:30.831Z,11.48
2017-09-15T06:42:19.056Z,11.44
2017-09-15T06:43:13.049Z,11.46
2017-09-15T06:44:08.150Z,11.48
2017-09-15T06:45:08.202Z,11.48
2017-09-15T06:45:57.257Z,11.52
2017-09-15T06:46:51.142Z,11.51
2017-09-15T06:47:51.353Z,11.66
2017-09-15T06:48:51.413Z,11.58
2017-09-15T06:49:40.391Z,11.65
2017-09-15T06:50:35.444Z,11.75
2017-09-15T06:51:29.397Z,11.76
2017-09-15T06:52:23.440Z,11.74
2017-09-15T06:53:18.636Z,11.77
2017-09-15T06:54:12.522Z,11.86
2017-09-15T06:55:12.451Z,11.96
2017-09-15T06:56:07.525Z,12.04
2017-09-15T06:57:07.683Z,12.04
2017-09-15T06:58:07.573Z,12.13
2017-09-15T06:59:07.571Z,12.12
2017-09-15T07:00:01.665Z,12.12
2017-09-15T07:00:49.717Z,12.18
2017-09-15T07:01:38.684Z,12.20
2017-09-15T07:02:26.849Z,12.22
2017-09-15T07:03:16.094Z,12.12
2017-09-15T07:04:09.827Z,12.00
2017-09-15T07:05:03.950Z,11.98
2017-09-15T07:05:57.937Z,12.01
2017-09-15T07:06:59.093Z,11.97
2017-09-15T07:07:59.129Z,11.90
2017-09-15T07:08:54.165Z,11.84
2017-09-15T07:09:54.279Z,11.96
2017-09-15T07:10:49.124Z,12.02
2017-09-15T07:11:44.155Z,12.04
2017-09-15T07:12:38.270Z,12.02
2017-09-15T07:13:33.251Z,12.18
2017-09-15T07:14:22.535Z,12.25
2017-09-15T07:15:16.315Z,12.32
2017-09-15T07:16:05.379Z,12.31
2017-09-15T07:16:54.388Z,12.31
2017-09-15T07:17:49.496Z,12.31
2017-09-15T07:18:50.514Z,12.43
2017-09-15T07:19:44.600Z,12.62
2017-09-15T07:20:33.589Z,12.43
2017-09-15T07:21:28.647Z,12.58
2017-09-15T07:22:22.988Z,12.57
2017-09-15T07:23:16.936Z,12.61
2017-09-15T07:24:11.866Z,12.64
2017-09-15T07:24:59.736Z,12.66
2017-09-15T07:25:59.825Z,12.69
2017-09-15T07:26:53.927Z,12.80
2017-09-15T07:27:53.853Z,12.92
2017-09-15T07:28:42.075Z,12.95
2017-09-15T07:29:30.023Z,12.98
2017-09-15T07:30:24.313Z,13.00
2017-09-15T07:31:25.053Z,13.06
2017-09-15T07:32:26.056Z,13.06
2017-09-15T07:33:20.360Z,13.11
2017-09-15T07:34:14.339Z,13.09
2017-09-15T07:35:14.434Z,13.24
2017-09-15T07:36:03.245Z,13.28
2017-09-15T07:36:58.470Z,13.31
2017-09-15T07:37:46.314Z,13.50
2017-09-15T07:38:41.375Z,13.46
2017-09-15T07:39:36.410Z,13.42
2017-09-15T07:40:30.548Z,13.36
2017-09-15T07:41:25.533Z,13.23
2017-09-15T07:42:14.591Z,13.16
2017-09-15T07:43:02.606Z,13.14
2017-09-15T07:43:51.631Z,13.24
2017-09-15T07:44:46.829Z,13.16
2017-09-15T07:45:46.798Z,13.10
2017-09-15T07:46:41.720Z,13.22
2017-09-15T07:47:36.745Z,13.22
2017-09-15T07:48:31.017Z,13.44
2017-09-15T07:49:25.963Z,13.41
2017-09-15T07:50:19.896Z,13.39
2017-09-15T07:51:14.054Z,13.40
2017-09-15T07:52:09.055Z,13.46
2017-09-15T07:53:10.238Z,13.34
2017-09-15T07:54:04.043Z,13.34
2017-09-15T07:55:04.354Z,13.41
2017-09-15T07:55:59.284Z,13.39
2017-09-15T07:56:54.234Z,13.44
2017-09-15T07:57:48.348Z,13.63
2017-09-15T07:58:48.435Z,13.79
2017-09-15T07:59:43.371Z,13.86
2017-09-15T08:00:38.411Z,13.90
2017-09-15T08:01:38.400Z,13.98
2017-09-15T08:02:32.598Z,13.98
2017-09-15T08:03:32.448Z,13.92
2017-09-15T08:04:27.526Z,13.92
2017-09-15T08:05:16.561Z,13.94
2017-09-15T08:06:11.738Z,14.10
2017-09-15T08:06:59.662Z,14.18
2017-09-15T08:07:53.824Z,14.28
2017-09-15T08:08:47.770Z,14.28
2017-09-15T08:09:47.766Z,14.38
2017-09-15T08:10:42.840Z,14.50
2017-09-15T08:11:36.846Z,14.56
2017-09-15T08:12:36.939Z,14.68
2017-09-15T08:13:25.984Z,14.51
2017-09-15T08:14:20.135Z,14.50
2017-09-15T08:15:08.998Z,14.61
2017-09-15T08:16:09.237Z,14.73
2017-09-15T08:17:03.141Z,15.04
2017-09-15T08:17:58.229Z,14.94
2017-09-15T08:18:52.420Z,14.68
2017-09-15T08:19:40.358Z,14.54
2017-09-15T08:20:40.313Z,14.34
2017-09-15T08:21:35.389Z,14.36
2017-09-15T08:22:35.405Z,14.24
2017-09-15T08:23:35.436Z,14.17
2017-09-15T08:24:35.429Z,13.94
2017-09-15T08:25:23.501Z,14.04
2017-09-15T08:26:12.539Z,14.02
2017-09-15T08:27:01.607Z,13.97
2017-09-15T08:28:01.652Z,13.74
2017-09-15T08:29:01.688Z,13.74
2017-09-15T08:30:01.753Z,13.71
2017-09-15T08:31:01.728Z,13.59
2017-09-15T08:32:01.775Z,13.19
2017-09-15T08:32:50.835Z,13.16
2017-09-15T08:33:45.856Z,13.10
2017-09-15T08:34:40.079Z,12.88
2017-09-15T08:35:34.994Z,12.80
2017-09-15T08:36:24.041Z,12.80
2017-09-15T08:37:19.155Z,12.70
2017-09-15T08:38:19.331Z,12.52
2017-09-15T08:39:14.177Z,12.50
2017-09-15T08:40:14.274Z,12.30
2017-09-15T08:41:03.272Z,12.42
2017-09-15T08:41:57.246Z,12.38
2017-09-15T08:42:57.261Z,12.25
2017-09-15T08:43:46.309Z,12.23
2017-09-15T08:44:35.370Z,12.31
2017-09-15T08:45:30.527Z,12.34
2017-09-15T08:46:30.472Z,12.40
2017-09-15T08:47:25.595Z,12.54
2017-09-15T08:48:25.476Z,12.61
2017-09-15T08:49:26.530Z,12.71
2017-09-15T08:50:27.610Z,12.78
2017-09-15T08:51:16.627Z,12.78
2017-09-15T08:52:04.728Z,12.82
2017-09-15T08:53:04.759Z,12.81
2017-09-15T08:54:04.775Z,12.85
2017-09-15T08:54:54.805Z,12.78
2017-09-15T08:55:48.884Z,12.77
2017-09-15T08:56:48.879Z,12.74
2017-09-15T08:57:43.165Z,12.72
2017-09-15T08:58:37.914Z,12.74
2017-09-15T08:59:33.030Z,12.61
2017-09-15T09:00:21.210Z,12.69
2017-09-15T09:01:15.211Z,12.70
2017-09-15T09:02:15.091Z,12.60
2017-09-15T09:03:10.335Z,12.61
2017-09-15T09:04:05.250Z,12.58
2017-09-15T09:05:05.337Z,12.62
2017-09-15T09:06:00.619Z,12.83
2017-09-15T09:06:54.360Z,13.12
2017-09-15T09:08:01.345Z,13.26
2017-09-15T09:09:02.451Z,13.37
2017-09-15T09:09:51.566Z,13.40
2017-09-15T09:10:46.556Z,12.99
2017-09-15T09:11:40.549Z,13.10
2017-09-15T09:12:35.813Z,13.00
2017-09-15T09:13:36.670Z,12.60
2017-09-15T09:14:36.832Z,13.02
2017-09-15T09:15:31.847Z,13.16
2017-09-15T09:16:31.909Z,13.20
2017-09-15T09:17:25.968Z,13.07
2017-09-15T09:18:15.073Z,13.06
2017-09-15T09:19:09.061Z,13.05
2017-09-15T09:20:04.282Z,12.98
2017-09-15T09:20:58.174Z,13.38
2017-09-15T09:21:52.145Z,13.73
2017-09-15T09:22:46.212Z,13.24
2017-09-15T09:23:41.249Z,12.43
2017-09-15T09:24:41.284Z,11.76
2017-09-15T09:25:36.315Z,11.49
2017-09-15T09:26:30.411Z,11.64
2017-09-15T09:27:24.447Z,11.79
2017-09-15T09:28:13.259Z,11.83
2017-09-15T09:29:02.336Z,12.02
2017-09-15T09:29:57.363Z,12.09
2017-09-15T09:30:46.459Z,12.68
2017-09-15T09:31:40.427Z,13.60
2017-09-15T09:32:39.550Z,13.50
2017-09-15T09:33:29.734Z,13.06
2017-09-15T09:34:23.568Z,13.24
2017-09-15T09:35:18.623Z,13.25
2017-09-15T09:36:07.727Z,13.63
2017-09-15T09:37:01.868Z,14.03
2017-09-15T09:38:01.778Z,13.88
2017-09-15T09:38:56.833Z,13.48
2017-09-15T09:39:56.874Z,13.62
2017-09-15T09:40:57.006Z,14.18
2017-09-15T09:41:51.952Z,15.00
2017-09-15T09:42:46.198Z,15.14
2017-09-15T09:43:41.032Z,15.27
2017-09-15T09:44:36.281Z,15.48
2017-09-15T09:45:30.182Z,15.52
2017-09-15T09:46:25.352Z,14.88
2017-09-15T09:47:13.559Z,14.12
2017-09-15T09:48:07.401Z,14.24
2017-09-15T09:49:01.424Z,13.99
2017-09-15T09:49:55.588Z,13.68
2017-09-15T09:50:50.440Z,13.45
2017-09-15T09:51:38.493Z,12.74
2017-09-15T09:52:39.539Z,11.86
2017-09-15T09:53:33.700Z,11.34
2017-09-15T09:54:27.614Z,10.91
2017-09-15T09:55:22.639Z,10.80
2017-09-15T09:56:16.721Z,10.76
2017-09-15T09:57:10.699Z,10.94
2017-09-15T09:57:58.854Z,11.04
2017-09-15T09:58:52.822Z,10.94
2017-09-15T09:59:52.912Z,11.04
2017-09-15T10:00:47.908Z,11.45
2017-09-15T10:01:41.957Z,11.80
2017-09-15T10:02:42.056Z,12.44
2017-09-15T10:03:42.145Z,13.17
2017-09-15T10:04:48.208Z,14.29
2017-09-15T10:05:43.169Z,15.60
2017-09-15T10:06:37.359Z,15.60
2017-09-15T10:07:32.613Z,16.08
2017-09-15T10:08:33.691Z,15.52
2017-09-15T10:09:22.373Z,15.44
2017-09-15T10:10:17.384Z,14.57
2017-09-15T10:11:11.444Z,13.94
2017-09-15T10:12:11.488Z,13.20
2017-09-15T10:13:05.525Z,13.07
2017-09-15T10:13:59.540Z,13.34
2017-09-15T10:14:59.587Z,13.40
2017-09-15T10:15:48.796Z,13.57
2017-09-15T10:16:42.832Z,13.94
2017-09-15T10:17:37.731Z,13.79
2017-09-15T10:18:31.829Z,14.06
2017-09-15T10:19:32.011Z,15.38
2017-09-15T10:20:21.021Z,16.55
2017-09-15T10:21:10.178Z,17.57
2017-09-15T10:22:04.233Z,18.14
2017-09-15T10:22:58.350Z,19.13
2017-09-15T10:23:58.218Z,19.33
2017-09-15T10:24:52.326Z,19.18
2017-09-15T10:25:46.725Z,19.20
2017-09-15T10:26:34.530Z,19.09
2017-09-15T10:27:29.573Z,18.39
2017-09-15T10:28:24.684Z,17.43
2017-09-15T10:29:18.727Z,16.97
2017-09-15T10:30:12.673Z,16.72
2017-09-15T10:31:06.793Z,16.48
2017-09-15T10:32:00.654Z,16.29
2017-09-15T10:32:55.862Z,15.56
2017-09-15T10:33:55.837Z,15.69
2017-09-15T10:34:50.144Z,15.90
2017-09-15T10:35:49.786Z,15.92
2017-09-15T10:36:43.856Z,15.84
2017-09-15T10:37:44.801Z,16.33
2017-09-15T10:38:39.074Z,16.28
2017-09-15T10:39:27.946Z,16.37
2017-09-15T10:40:17.162Z,17.39
2017-09-15T10:41:12.203Z,17.46
2017-09-15T10:42:07.389Z,17.62
2017-09-15T10:42:55.389Z,17.47
2017-09-15T10:43:44.532Z,17.47
2017-09-15T10:44:38.441Z,18.08
2017-09-15T10:45:38.549Z,18.56
2017-09-15T10:46:32.547Z,18.46
2017-09-15T10:47:26.704Z,18.59
2017-09-15T10:48:20.817Z,18.87
2017-09-15T10:49:15.494Z,19.73
2017-09-15T10:50:15.555Z,19.96
2017-09-15T10:51:10.661Z,20.11
2017-09-15T10:52:04.710Z,20.53
2017-09-15T10:53:04.944Z,20.91
2017-09-15T10:54:05.993Z,21.06
2017-09-15T10:54:53.957Z,20.46
2017-09-15T10:55:48.002Z,19.81
2017-09-15T10:56:41.937Z,19.48
2017-09-15T10:57:31.092Z,18.96
2017-09-15T10:58:31.210Z,18.02
2017-09-15T10:59:31.312Z,17.32
2017-09-15T11:00:31.371Z,16.88
2017-09-15T11:01:25.442Z,16.46
2017-09-15T11:02:19.610Z,16.10
2017-09-15T11:03:19.284Z,16.38
2017-09-15T11:04:19.367Z,16.23
2017-09-15T11:05:13.612Z,16.50
2017-09-15T11:06:07.596Z,17.38
2017-09-15T11:07:01.523Z,18.36
2017-09-15T11:07:56.549Z,19.46
2017-09-15T11:08:56.927Z,20.02
2017-09-15T11:09:45.923Z,19.97
2017-09-15T11:10:39.739Z,20.16
2017-09-15T11:11:33.715Z,20.34
2017-09-15T11:12:27.989Z,20.52
2017-09-15T11:13:27.869Z,20.16
2017-09-15T11:14:28.103Z,19.70
2017-09-15T11:15:17.012Z,19.25
2017-09-15T11:16:16.129Z,18.72
2017-09-15T11:17:05.268Z,18.28
2017-09-15T11:17:59.218Z,17.60
2017-09-15T11:18:54.469Z,17.24
2017-09-15T11:19:49.453Z,16.73
2017-09-15T11:20:43.427Z,16.32
2017-09-15T11:21:37.590Z,15.96
2017-09-15T11:22:31.573Z,15.37
2017-09-15T11:23:25.783Z,14.60
2017-09-15T11:24:14.461Z,13.74
2017-09-15T11:25:08.622Z,12.99
2017-09-15T11:26:08.726Z,13.06
2017-09-15T11:27:03.623Z,13.36
2017-09-15T11:27:51.649Z,12.80
2017-09-15T11:28:40.856Z,12.50
2017-09-15T11:29:40.778Z,12.68
2017-09-15T11:30:34.826Z,12.79
2017-09-15T11:31:35.980Z,13.00
2017-09-15T11:32:29.996Z,12.88
2017-09-15T11:33:25.372Z,13.19
2017-09-15T11:34:13.042Z,14.00
2017-09-15T11:35:08.436Z,13.76
2017-09-15T11:36:02.181Z,14.04
2017-09-15T11:36:57.501Z,14.35
2017-09-15T11:37:51.435Z,14.45
2017-09-15T11:38:46.499Z,14.43
2017-09-15T11:39:40.404Z,14.87
2017-09-15T11:40:35.289Z,15.07
2017-09-15T11:41:30.451Z,16.20
2017-09-15T11:42:30.495Z,17.26